createdAt,value
2022-10-01T00:02:15.894Z,21.40
2022-10-01T00:04:46.511Z,21.43
2022-10-01T00:07:16.858Z,21.47
2022-10-01T00:09:46.993Z,21.50
2022-10-01T00:12:17.880Z,21.51
2022-10-01T00:14:47.934Z,21.50
2022-10-01T00:17:18.670Z,21.53
2022-10-01T00:19:48.697Z,21.57
2022-10-01T00:22:20.413Z,21.58
2022-10-01T00:24:51.147Z,21.60
2022-10-01T00:27:21.463Z,21.61
2022-10-01T00:29:51.475Z,21.64
2022-10-01T00:32:22.332Z,21.67
2022-10-01T00:34:53.553Z,21.68
2022-10-01T00:37:23.833Z,21.70
2022-10-01T00:39:54.114Z,21.73
2022-10-01T00:42:28.561Z,21.74
2022-10-01T00:45:00.397Z,21.76
2022-10-01T00:47:35.516Z,21.79
2022-10-01T00:50:08.918Z,21.81
2022-10-01T00:52:43.686Z,21.84
2022-10-01T00:55:22.615Z,21.87
2022-10-01T00:57:53.729Z,21.89
2022-10-01T01:00:24.801Z,21.92
2022-10-01T01:02:55.238Z,21.94
2022-10-01T01:05:26.367Z,21.99
2022-10-01T01:07:56.693Z,22.01
2022-10-01T01:10:50.774Z,22.04
2022-10-01T01:13:56.464Z,22.03
2022-10-01T01:16:39.537Z,22.03
2022-10-01T01:19:53.701Z,22.03
2022-10-01T01:22:28.922Z,22.00
2022-10-01T01:25:18.236Z,21.98
2022-10-01T01:27:55.250Z,21.99
2022-10-01T01:30:25.620Z,21.99
2022-10-01T01:33:07.318Z,22.02
2022-10-01T01:35:53.494Z,22.03
2022-10-01T01:38:30.695Z,22.05
2022-10-01T01:41:03.864Z,22.06
2022-10-01T01:43:38.126Z,22.08
2022-10-01T01:46:13.106Z,22.09
2022-10-01T01:48:49.260Z,22.11
2022-10-01T01:51:32.925Z,22.12
2022-10-01T01:54:04.160Z,22.17
2022-10-01T01:56:35.605Z,22.18
2022-10-01T01:59:06.798Z,22.19
2022-10-01T02:01:45.384Z,22.22
2022-10-01T02:04:21.340Z,22.22
2022-10-01T02:07:18.637Z,22.22
2022-10-01T02:10:10.010Z,22.26
2022-10-01T02:13:10.291Z,22.30
2022-10-01T02:15:56.539Z,22.35
2022-10-01T02:18:41.961Z,22.38
2022-10-01T02:21:21.757Z,22.42
2022-10-01T02:23:59.641Z,22.45
2022-10-01T02:26:33.251Z,22.48
2022-10-01T02:29:09.612Z,22.53
2022-10-01T02:31:40.370Z,22.57
2022-10-01T02:34:13.101Z,22.59
2022-10-01T02:36:46.628Z,22.64
2022-10-01T02:39:19.300Z,22.69
2022-10-01T02:41:52.727Z,22.74
2022-10-01T02:44:31.645Z,22.79
2022-10-01T02:47:46.334Z,22.85
2022-10-01T02:50:17.273Z,22.90
2022-10-01T02:52:53.477Z,22.95
2022-10-01T02:55:30.169Z,23.01
2022-10-01T02:58:00.477Z,23.05
2022-10-01T03:00:30.788Z,23.10
2022-10-01T03:03:00.830Z,23.16
2022-10-01T03:05:31.004Z,23.22
2022-10-01T03:08:01.212Z,23.28
2022-10-01T03:10:32.174Z,23.34
2022-10-01T03:13:03.204Z,23.39
2022-10-01T03:15:33.679Z,23.42
2022-10-01T03:18:04.509Z,23.49
2022-10-01T03:20:34.806Z,23.54
2022-10-01T03:23:04.910Z,23.59
2022-10-01T03:25:35.592Z,23.63
2022-10-01T03:28:06.202Z,23.70
2022-10-01T03:30:37.060Z,23.76
2022-10-01T03:33:07.411Z,23.82
2022-10-01T03:35:37.376Z,23.88
2022-10-01T03:38:09.538Z,23.96
2022-10-01T03:40:40.332Z,24.01
2022-10-01T03:43:10.828Z,24.04
2022-10-01T03:45:40.845Z,24.09
2022-10-01T03:48:11.157Z,24.13
2022-10-01T03:50:41.618Z,24.16
2022-10-01T03:53:11.964Z,24.22
2022-10-01T03:55:42.405Z,24.23
2022-10-01T03:58:13.717Z,24.25
2022-10-01T04:00:46.147Z,24.27
2022-10-01T04:03:17.760Z,24.31
2022-10-01T04:05:48.169Z,24.33
2022-10-01T04:08:23.447Z,24.35
2022-10-01T04:10:54.617Z,24.36
2022-10-01T04:13:24.733Z,24.35
2022-10-01T04:15:54.767Z,24.36
2022-10-01T04:18:24.764Z,24.35
2022-10-01T04:20:55.084Z,24.34
2022-10-01T04:23:26.655Z,24.32
2022-10-01T04:26:00.394Z,24.31
2022-10-01T04:28:31.870Z,24.30
2022-10-01T04:31:20.254Z,24.28
2022-10-01T04:33:51.026Z,24.28
2022-10-01T04:36:21.615Z,24.24
2022-10-01T04:39:00.740Z,24.22
2022-10-01T04:41:33.920Z,24.19
2022-10-01T04:44:04.324Z,24.15
2022-10-01T04:46:34.556Z,24.14
2022-10-01T04:49:04.730Z,24.12
2022-10-01T04:51:35.077Z,24.12
2022-10-01T04:54:05.686Z,24.13
2022-10-01T04:56:36.535Z,24.13
2022-10-01T04:59:06.603Z,24.15
2022-10-01T05:01:37.056Z,24.18
2022-10-01T05:04:07.701Z,24.21
2022-10-01T05:06:38.318Z,24.24
2022-10-01T05:09:08.486Z,24.29
2022-10-01T05:11:40.326Z,24.30
2022-10-01T05:14:10.480Z,24.31
2022-10-01T05:16:40.554Z,24.34
2022-10-01T05:19:11.066Z,24.36
2022-10-01T05:21:41.313Z,24.39
2022-10-01T05:24:11.641Z,24.42
2022-10-01T05:26:41.735Z,24.44
2022-10-01T05:29:12.193Z,24.48
2022-10-01T05:31:46.367Z,24.53
2022-10-01T05:34:15.777Z,24.58
2022-10-01T05:36:45.768Z,24.63
2022-10-01T05:39:16.044Z,24.67
2022-10-01T05:41:46.451Z,24.70
2022-10-01T05:44:16.647Z,24.77
2022-10-01T05:46:46.658Z,24.80
2022-10-01T05:49:17.766Z,24.85
2022-10-01T05:51:48.271Z,24.88
2022-10-01T05:54:20.827Z,24.91
2022-10-01T05:56:52.361Z,24.93
2022-10-01T05:59:22.662Z,24.94
2022-10-01T06:01:54.291Z,24.98
2022-10-01T06:04:25.333Z,24.99
2022-10-01T06:06:58.117Z,25.00
2022-10-01T06:09:28.961Z,25.00
2022-10-01T06:12:00.697Z,24.99
2022-10-01T06:14:31.237Z,25.01
2022-10-01T06:17:01.826Z,25.01
2022-10-01T06:19:32.102Z,25.02
2022-10-01T06:22:02.517Z,25.02
2022-10-01T06:24:33.235Z,25.04
2022-10-01T06:27:03.713Z,25.04
2022-10-01T06:29:33.986Z,25.05
2022-10-01T06:32:04.336Z,25.05
2022-10-01T06:34:34.634Z,25.03
2022-10-01T06:37:05.208Z,25.03
2022-10-01T06:39:36.020Z,25.03
2022-10-01T06:42:07.234Z,25.03
2022-10-01T06:44:38.336Z,25.03
2022-10-01T06:47:08.951Z,25.03
2022-10-01T06:49:40.111Z,25.03
2022-10-01T06:52:30.594Z,25.04
2022-10-01T06:55:02.876Z,25.05
2022-10-01T06:57:35.586Z,25.06
2022-10-01T07:00:06.969Z,25.04
2022-10-01T07:02:37.605Z,25.03
2022-10-01T07:05:10.322Z,24.99
2022-10-01T07:07:41.441Z,24.98
2022-10-01T07:10:14.159Z,24.99
2022-10-01T07:12:44.629Z,25.00
2022-10-01T07:15:15.030Z,24.95
2022-10-01T07:17:47.810Z,24.96
2022-10-01T07:20:21.382Z,24.95
2022-10-01T07:22:57.787Z,24.93
2022-10-01T07:25:30.650Z,24.93
2022-10-01T07:28:06.825Z,24.93
2022-10-01T07:30:37.924Z,24.92
2022-10-01T07:33:08.180Z,24.91
2022-10-01T07:35:39.726Z,24.88
2022-10-01T07:38:09.884Z,24.86
2022-10-01T07:40:40.200Z,24.84
2022-10-01T07:43:11.453Z,24.82
2022-10-01T07:45:42.214Z,24.79
2022-10-01T07:48:12.578Z,24.78
2022-10-01T07:50:44.551Z,24.75
2022-10-01T07:53:16.173Z,24.71
2022-10-01T07:55:46.865Z,24.70
2022-10-01T07:58:16.809Z,24.69
2022-10-01T08:00:46.921Z,24.68
2022-10-01T08:03:18.065Z,24.68
2022-10-01T08:05:50.404Z,24.68
2022-10-01T08:08:21.172Z,24.66
2022-10-01T08:10:51.940Z,24.64
2022-10-01T08:13:26.147Z,24.61
2022-10-01T08:15:56.724Z,24.58
2022-10-01T08:18:26.838Z,24.55
2022-10-01T08:20:57.171Z,24.53
2022-10-01T08:23:28.150Z,24.48
2022-10-01T08:26:03.576Z,24.46
2022-10-01T08:28:34.497Z,24.38
2022-10-01T08:31:09.394Z,24.35
2022-10-01T08:33:40.783Z,24.32
2022-10-01T08:36:11.006Z,24.28
2022-10-01T08:38:42.728Z,24.22
2022-10-01T08:41:51.256Z,24.17
2022-10-01T08:44:29.321Z,24.11
2022-10-01T08:47:13.800Z,24.05
2022-10-01T08:49:52.714Z,24.00
2022-10-01T08:52:33.959Z,23.97
2022-10-01T08:55:12.848Z,23.95
2022-10-01T08:58:01.054Z,23.91
2022-10-01T09:00:34.016Z,23.89
2022-10-01T09:03:09.779Z,23.87
2022-10-01T09:05:52.573Z,23.83
2022-10-01T09:08:53.230Z,23.82
2022-10-01T09:11:32.140Z,23.79
2022-10-01T09:14:32.276Z,23.74
2022-10-01T09:17:24.608Z,23.71
2022-10-01T09:20:24.165Z,23.70
2022-10-01T09:23:18.674Z,23.70
2022-10-01T09:25:52.156Z,23.68
2022-10-01T09:28:26.519Z,23.66
2022-10-01T09:31:02.060Z,23.65
2022-10-01T09:33:35.550Z,23.62
2022-10-01T09:36:13.662Z,23.62
2022-10-01T09:38:58.868Z,23.59
2022-10-01T09:41:35.987Z,23.57
2022-10-01T09:44:10.471Z,23.54
2022-10-01T09:46:51.155Z,23.51
2022-10-01T09:49:35.173Z,23.51
2022-10-01T09:52:30.158Z,23.50
2022-10-01T09:55:20.359Z,23.46
2022-10-01T09:58:02.421Z,23.43
2022-10-01T10:00:33.664Z,23.42
2022-10-01T10:03:03.778Z,23.39
2022-10-01T10:05:45.109Z,23.38
2022-10-01T10:08:16.626Z,23.37
2022-10-01T10:11:04.148Z,23.36
2022-10-01T10:13:42.230Z,23.36
2022-10-01T10:16:27.754Z,23.34
2022-10-01T10:19:12.059Z,23.33
2022-10-01T10:21:53.960Z,23.31
2022-10-01T10:24:27.867Z,23.25
2022-10-01T10:26:59.750Z,23.24
2022-10-01T10:29:36.173Z,23.24
2022-10-01T10:32:26.966Z,23.22
2022-10-01T10:35:03.710Z,23.21
2022-10-01T10:37:39.271Z,23.19
2022-10-01T10:40:11.865Z,23.18
2022-10-01T10:42:52.068Z,23.14
2022-10-01T10:45:32.128Z,23.11
2022-10-01T10:48:06.472Z,23.10
2022-10-01T10:50:42.870Z,23.09
2022-10-01T10:53:26.947Z,23.06
2022-10-01T10:56:08.213Z,23.04
2022-10-01T10:58:43.723Z,23.04
2022-10-01T11:01:30.351Z,23.05
2022-10-01T11:04:03.251Z,23.03
2022-10-01T11:06:33.578Z,23.02
2022-10-01T11:09:10.306Z,23.01
2022-10-01T11:11:58.311Z,23.00
2022-10-01T11:14:43.329Z,22.99
2022-10-01T11:17:32.994Z,22.96
2022-10-01T11:20:41.704Z,22.93
2022-10-01T11:24:07.766Z,22.92
2022-10-01T11:27:08.154Z,22.87
2022-10-01T11:30:19.593Z,22.85
2022-10-01T11:33:13.486Z,22.85
2022-10-01T11:35:50.658Z,22.82
2022-10-01T11:38:41.107Z,22.80
2022-10-01T11:41:36.043Z,22.78
2022-10-01T11:44:37.869Z,22.77
2022-10-01T11:47:27.663Z,22.77
2022-10-01T11:50:07.459Z,22.77
2022-10-01T11:53:02.030Z,22.78
2022-10-01T11:56:13.149Z,22.77
2022-10-01T11:58:53.367Z,22.76
2022-10-01T12:01:29.682Z,22.74
2022-10-01T12:04:15.821Z,22.72
2022-10-01T12:06:56.602Z,22.72
2022-10-01T12:09:38.539Z,22.70
2022-10-01T12:12:26.795Z,22.68
2022-10-01T12:15:19.816Z,22.68
2022-10-01T12:18:01.478Z,22.69
2022-10-01T12:20:49.611Z,22.67
2022-10-01T12:23:29.671Z,22.66
2022-10-01T12:26:30.399Z,22.65
2022-10-01T12:29:30.018Z,22.64
2022-10-01T12:32:06.305Z,22.61
2022-10-01T12:34:39.919Z,22.62
2022-10-01T12:37:34.712Z,22.61
2022-10-01T12:40:30.353Z,22.61
2022-10-01T12:43:22.253Z,22.59
2022-10-01T12:45:58.218Z,22.59
2022-10-01T12:48:56.185Z,22.57
2022-10-01T12:51:54.274Z,22.56
2022-10-01T12:54:45.488Z,22.55
2022-10-01T12:57:24.763Z,22.51
2022-10-01T12:59:54.823Z,22.45
2022-10-01T13:02:24.925Z,22.41
2022-10-01T13:05:21.421Z,22.40
2022-10-01T13:08:20.345Z,22.38
2022-10-01T13:11:09.815Z,22.38
2022-10-01T13:13:41.312Z,22.42
2022-10-01T13:16:40.714Z,22.42
2022-10-01T13:19:47.318Z,22.42
2022-10-01T13:22:33.937Z,22.42
2022-10-01T13:25:10.764Z,22.41
2022-10-01T13:27:49.220Z,22.41
2022-10-01T13:30:32.171Z,22.41
2022-10-01T13:33:03.676Z,22.40
2022-10-01T13:35:40.908Z,22.41
2022-10-01T13:38:19.461Z,22.39
2022-10-01T13:41:01.275Z,22.40
2022-10-01T13:43:36.097Z,22.37
2022-10-01T13:46:14.329Z,22.37
2022-10-01T13:48:51.210Z,22.36
2022-10-01T13:51:22.054Z,22.34
2022-10-01T13:54:03.730Z,22.34
2022-10-01T13:56:38.465Z,22.34
2022-10-01T13:59:35.189Z,22.35
2022-10-01T14:02:25.927Z,22.35
2022-10-01T14:04:57.912Z,22.36
2022-10-01T14:07:37.827Z,22.35
2022-10-01T14:10:13.914Z,22.35
2022-10-01T14:13:06.563Z,22.36
2022-10-01T14:16:04.801Z,22.35
2022-10-01T14:18:44.457Z,22.35
2022-10-01T14:21:38.402Z,22.35
2022-10-01T14:24:25.803Z,22.35
2022-10-01T14:27:11.657Z,22.34
2022-10-01T14:30:02.913Z,22.35
2022-10-01T14:33:00.311Z,22.33
2022-10-01T14:35:43.788Z,22.31
2022-10-01T14:38:22.644Z,22.31
2022-10-01T14:40:55.272Z,22.31
2022-10-01T14:43:34.266Z,22.29
2022-10-01T14:46:08.241Z,22.28
2022-10-01T14:48:40.247Z,22.29
2022-10-01T14:51:33.220Z,22.28
2022-10-01T14:54:04.098Z,22.27
2022-10-01T14:56:36.196Z,22.26
2022-10-01T14:59:08.805Z,22.24
2022-10-01T15:01:39.172Z,22.25
2022-10-01T15:04:17.001Z,22.25
2022-10-01T15:06:47.547Z,22.24
2022-10-01T15:09:21.861Z,22.24
2022-10-01T15:11:54.436Z,22.23
2022-10-01T15:14:27.949Z,22.23
2022-10-01T15:16:58.492Z,22.20
2022-10-01T15:19:29.459Z,22.20
2022-10-01T15:22:04.267Z,22.19
2022-10-01T15:24:51.413Z,22.16
2022-10-01T15:27:24.375Z,22.17
2022-10-01T15:30:00.675Z,22.16
2022-10-01T15:32:30.885Z,22.14
2022-10-01T15:35:04.027Z,22.12
2022-10-01T15:37:37.671Z,22.11
2022-10-01T15:40:22.242Z,22.10
2022-10-01T15:43:12.369Z,22.09
2022-10-01T15:45:43.974Z,22.08
2022-10-01T15:48:35.937Z,22.07
2022-10-01T15:51:30.404Z,22.07
2022-10-01T15:54:10.515Z,22.06
2022-10-01T15:56:43.879Z,22.05
2022-10-01T15:59:21.889Z,22.05
2022-10-01T16:01:51.577Z,22.04
2022-10-01T16:04:23.602Z,22.04
2022-10-01T16:06:55.093Z,22.03
2022-10-01T16:09:30.993Z,22.02
2022-10-01T16:12:08.335Z,22.00
2022-10-01T16:15:01.479Z,21.99
2022-10-01T16:17:41.828Z,21.97
2022-10-01T16:20:18.279Z,21.97
2022-10-01T16:22:48.776Z,21.96
2022-10-01T16:25:26.153Z,21.95
2022-10-01T16:28:06.537Z,21.93
2022-10-01T16:30:37.490Z,21.94
2022-10-01T16:33:08.379Z,21.93
2022-10-01T16:35:42.113Z,21.91
2022-10-01T16:38:12.092Z,21.91
2022-10-01T16:40:49.281Z,21.92
2022-10-01T16:43:25.549Z,21.91
2022-10-01T16:45:56.617Z,21.91
2022-10-01T16:48:27.045Z,21.89
2022-10-01T16:51:00.426Z,21.89
2022-10-01T16:53:30.980Z,21.89
2022-10-01T16:56:01.099Z,21.87
2022-10-01T16:58:30.794Z,21.87
2022-10-01T17:01:00.948Z,21.86
2022-10-01T17:03:31.770Z,21.85
2022-10-01T17:06:01.914Z,21.83
2022-10-01T17:08:32.178Z,21.84
2022-10-01T17:11:03.987Z,21.85
2022-10-01T17:13:35.255Z,21.84
2022-10-01T17:16:06.972Z,21.83
2022-10-01T17:18:37.930Z,21.83
2022-10-01T17:21:08.251Z,21.83
2022-10-01T17:23:38.454Z,21.75
2022-10-01T17:26:11.039Z,21.64
2022-10-01T17:28:41.116Z,21.51
2022-10-01T17:31:15.605Z,21.43
2022-10-01T17:33:48.192Z,21.32
2022-10-01T17:36:18.249Z,21.24
2022-10-01T17:38:48.571Z,21.17
2022-10-01T17:41:18.696Z,21.10
2022-10-01T17:43:48.691Z,21.03
2022-10-01T17:46:19.002Z,20.97
2022-10-01T17:48:52.431Z,20.95
2022-10-01T17:51:22.736Z,20.91
2022-10-01T17:53:52.934Z,20.92
2022-10-01T17:56:22.875Z,20.91
2022-10-01T17:58:56.213Z,20.91
2022-10-01T18:01:26.754Z,20.91
2022-10-01T18:03:57.161Z,20.91
2022-10-01T18:06:27.598Z,20.93
2022-10-01T18:08:57.899Z,20.92
2022-10-01T18:11:30.361Z,20.91
2022-10-01T18:14:02.208Z,20.90
2022-10-01T18:16:33.969Z,20.89
2022-10-01T18:21:56.583Z,20.85
2022-10-01T18:24:27.338Z,20.83
2022-10-01T18:26:58.159Z,20.83
2022-10-01T18:29:29.664Z,20.81
2022-10-01T18:32:28.053Z,20.80
2022-10-01T18:35:03.498Z,20.79
2022-10-01T18:38:01.305Z,20.77
2022-10-01T18:40:36.432Z,20.74
2022-10-01T18:43:19.345Z,20.73
2022-10-01T18:46:15.737Z,20.71
2022-10-01T18:48:57.210Z,20.67
2022-10-01T18:51:53.670Z,20.64
2022-10-01T18:54:52.388Z,20.58
2022-10-01T18:57:28.359Z,20.51
2022-10-01T19:00:13.366Z,20.40
2022-10-01T19:03:01.783Z,20.34
2022-10-01T19:05:53.044Z,20.27
2022-10-01T19:09:02.181Z,20.21
2022-10-01T19:11:47.561Z,20.17
2022-10-01T19:14:26.415Z,20.11
2022-10-01T19:17:20.552Z,20.09
2022-10-01T19:20:23.782Z,20.05
2022-10-01T19:23:25.155Z,19.99
2022-10-01T19:26:03.032Z,19.96
2022-10-01T19:29:10.877Z,19.94
2022-10-01T19:32:02.510Z,19.91
2022-10-01T19:34:46.393Z,19.87
2022-10-01T19:37:40.095Z,19.86
2022-10-01T19:40:24.743Z,19.83
2022-10-01T19:43:18.072Z,19.82
2022-10-01T19:46:17.237Z,19.80
2022-10-01T19:48:56.054Z,19.79
2022-10-01T19:51:35.524Z,19.77
2022-10-01T19:54:13.656Z,19.76
2022-10-01T19:56:44.812Z,19.76
2022-10-01T19:59:20.980Z,19.75
2022-10-01T20:02:03.528Z,19.73
2022-10-01T20:04:36.685Z,19.71
2022-10-01T20:07:40.232Z,19.71
2022-10-01T20:10:19.795Z,19.70
2022-10-01T20:13:03.683Z,19.68
2022-10-01T20:15:36.039Z,19.65
2022-10-01T20:18:38.136Z,19.65
2022-10-01T20:21:16.407Z,19.64
2022-10-01T20:24:00.445Z,19.62
2022-10-01T20:26:52.281Z,19.60
2022-10-01T20:29:30.891Z,19.58
2022-10-01T20:32:14.867Z,19.57
2022-10-01T20:34:44.817Z,19.56
2022-10-01T20:37:24.040Z,19.54
2022-10-01T20:40:03.365Z,19.50
2022-10-01T20:42:48.190Z,19.48
2022-10-01T20:45:27.765Z,19.45
2022-10-01T20:48:12.215Z,19.41
2022-10-01T20:50:49.166Z,19.38
2022-10-01T20:53:52.546Z,19.40
2022-10-01T20:56:32.721Z,19.38
2022-10-01T20:59:25.499Z,19.38
2022-10-01T21:02:06.337Z,19.38
2022-10-01T21:04:42.896Z,19.39
2022-10-01T21:07:19.149Z,19.37
2022-10-01T21:09:53.654Z,19.40
2022-10-01T21:12:31.501Z,19.45
2022-10-01T21:15:03.846Z,19.45
2022-10-01T21:17:54.778Z,19.42
2022-10-01T21:20:24.810Z,19.40
2022-10-01T21:23:48.259Z,19.38
2022-10-01T21:26:25.590Z,19.34
2022-10-01T21:29:25.528Z,19.32
2022-10-01T21:32:07.505Z,19.28
2022-10-01T21:34:43.698Z,19.26
2022-10-01T21:37:27.615Z,19.23
2022-10-01T21:40:05.438Z,19.22
2022-10-01T21:43:07.807Z,19.22
2022-10-01T21:46:08.780Z,19.20
2022-10-01T21:48:54.427Z,19.18
2022-10-01T21:51:56.387Z,19.17
2022-10-01T21:54:46.763Z,19.16
2022-10-01T21:57:53.036Z,19.14
2022-10-01T22:00:29.820Z,19.11
2022-10-01T22:03:29.971Z,19.12
2022-10-01T22:06:19.172Z,19.10
2022-10-01T22:09:20.641Z,19.08
2022-10-01T22:11:56.045Z,19.07
2022-10-01T22:14:28.134Z,19.06
2022-10-01T22:17:02.215Z,19.04
2022-10-01T22:19:39.134Z,19.05
2022-10-01T22:22:16.961Z,19.04
2022-10-01T22:24:50.513Z,19.03
2022-10-01T22:27:38.592Z,19.03
2022-10-01T22:30:13.538Z,19.01
2022-10-01T22:32:50.390Z,19.00
2022-10-01T22:35:45.713Z,19.00
2022-10-01T22:38:34.218Z,19.02
2022-10-01T22:41:36.382Z,19.01
2022-10-01T22:44:25.667Z,18.99
2022-10-01T22:46:58.040Z,18.99
2022-10-01T22:49:49.257Z,18.99
2022-10-01T22:52:33.085Z,18.96
2022-10-01T22:55:27.499Z,18.96
2022-10-01T22:58:07.528Z,18.97
2022-10-01T23:00:46.482Z,18.97
2022-10-01T23:03:39.970Z,18.98
2022-10-01T23:06:15.968Z,18.99
2022-10-01T23:08:58.227Z,19.00
2022-10-01T23:11:43.327Z,19.01
2022-10-01T23:14:19.524Z,19.00
2022-10-01T23:17:05.933Z,19.02
2022-10-01T23:19:47.389Z,19.04
2022-10-01T23:22:55.474Z,19.06
2022-10-01T23:26:02.669Z,19.06
2022-10-01T23:28:54.012Z,19.07
2022-10-01T23:31:35.972Z,19.06
2022-10-01T23:34:12.492Z,19.07
2022-10-01T23:36:46.111Z,19.05
2022-10-01T23:39:25.491Z,19.05
2022-10-01T23:41:59.259Z,19.04
2022-10-01T23:44:52.250Z,19.03
2022-10-01T23:47:35.302Z,19.05
2022-10-01T23:50:10.095Z,19.05
2022-10-01T23:52:47.144Z,19.05
2022-10-01T23:55:42.090Z,19.06
2022-10-01T23:58:16.479Z,19.07
